sensor_id;sensor_type;location;lat;lon;timestamp;P1;durP1;ratioP1;P2;durP2;ratioP2
22644;SDS011;11489;50.834;6.752;2023-06-26T00:02:20;6.10;;;5.07;;
22644;SDS011;11489;50.834;6.752;2023-06-26T00:04:46;7.25;;;5.72;;
22644;SDS011;11489;50.834;6.752;2023-06-26T00:07:11;6.32;;;5.10;;
22644;SDS011;11489;50.834;6.752;2023-06-26T00:09:37;6.00;;;5.32;;
22644;SDS011;11489;50.834;6.752;2023-06-26T00:12:03;6.20;;;5.13;;
22644;SDS011;11489;50.834;6.752;2023-06-26T00:14:29;6.40;;;4.85;;
22644;SDS011;11489;50.834;6.752;2023-06-26T00:16:55;6.38;;;4.78;;
22644;SDS011;11489;50.834;6.752;2023-06-26T00:19:20;5.85;;;5.18;;
22644;SDS011;11489;50.834;6.752;2023-06-26T00:21:46;5.95;;;5.35;;
22644;SDS011;11489;50.834;6.752;2023-06-26T00:24:16;5.65;;;5.07;;
22644;SDS011;11489;50.834;6.752;2023-06-26T00:26:42;6.05;;;5.30;;
22644;SDS011;11489;50.834;6.752;2023-06-26T00:29:13;5.40;;;4.68;;
22644;SDS011;11489;50.834;6.752;2023-06-26T00:31:38;5.95;;;5.10;;
22644;SDS011;11489;50.834;6.752;2023-06-26T00:34:05;7.97;;;5.20;;
22644;SDS011;11489;50.834;6.752;2023-06-26T00:36:31;7.07;;;5.50;;
22644;SDS011;11489;50.834;6.752;2023-06-26T00:38:57;6.07;;;5.07;;
22644;SDS011;11489;50.834;6.752;2023-06-26T00:41:23;7.13;;;5.60;;
22644;SDS011;11489;50.834;6.752;2023-06-26T00:43:49;8.50;;;5.53;;
22644;SDS011;11489;50.834;6.752;2023-06-26T00:46:16;6.63;;;5.35;;
22644;SDS011;11489;50.834;6.752;2023-06-26T00:48:42;6.78;;;5.25;;
22644;SDS011;11489;50.834;6.752;2023-06-26T00:51:08;8.02;;;5.35;;
22644;SDS011;11489;50.834;6.752;2023-06-26T00:53:35;8.55;;;5.45;;
22644;SDS011;11489;50.834;6.752;2023-06-26T00:56:04;6.38;;;5.43;;
22644;SDS011;11489;50.834;6.752;2023-06-26T00:58:30;5.78;;;5.18;;
22644;SDS011;11489;50.834;6.752;2023-06-26T01:00:57;5.85;;;5.25;;
22644;SDS011;11489;50.834;6.752;2023-06-26T01:03:23;9.82;;;5.65;;
22644;SDS011;11489;50.834;6.752;2023-06-26T01:05:52;8.48;;;5.38;;
22644;SDS011;11489;50.834;6.752;2023-06-26T01:08:20;6.40;;;5.25;;
22644;SDS011;11489;50.834;6.752;2023-06-26T01:10:47;6.50;;;5.07;;
22644;SDS011;11489;50.834;6.752;2023-06-26T01:13:13;5.78;;;4.95;;
22644;SDS011;11489;50.834;6.752;2023-06-26T01:15:40;7.25;;;5.45;;
22644;SDS011;11489;50.834;6.752;2023-06-26T01:18:06;5.45;;;4.88;;
22644;SDS011;11489;50.834;6.752;2023-06-26T01:20:38;6.57;;;5.32;;
22644;SDS011;11489;50.834;6.752;2023-06-26T01:28:45;5.63;;;4.97;;
22644;SDS011;11489;50.834;6.752;2023-06-26T01:31:11;7.03;;;4.93;;
22644;SDS011;11489;50.834;6.752;2023-06-26T01:33:38;6.90;;;5.30;;
22644;SDS011;11489;50.834;6.752;2023-06-26T01:36:05;6.15;;;5.25;;
22644;SDS011;11489;50.834;6.752;2023-06-26T01:38:32;7.05;;;5.22;;
22644;SDS011;11489;50.834;6.752;2023-06-26T01:40:58;6.25;;;4.88;;
22644;SDS011;11489;50.834;6.752;2023-06-26T01:48:49;6.65;;;5.43;;
22644;SDS011;11489;50.834;6.752;2023-06-26T01:51:20;6.75;;;5.57;;
22644;SDS011;11489;50.834;6.752;2023-06-26T01:53:53;7.85;;;5.40;;
22644;SDS011;11489;50.834;6.752;2023-06-26T01:56:21;6.60;;;5.30;;
22644;SDS011;11489;50.834;6.752;2023-06-26T01:58:49;6.70;;;5.60;;
22644;SDS011;11489;50.834;6.752;2023-06-26T02:01:19;7.05;;;5.95;;
22644;SDS011;11489;50.834;6.752;2023-06-26T02:03:46;5.88;;;5.28;;
22644;SDS011;11489;50.834;6.752;2023-06-26T02:06:12;6.15;;;5.30;;
22644;SDS011;11489;50.834;6.752;2023-06-26T02:08:38;7.82;;;5.32;;
22644;SDS011;11489;50.834;6.752;2023-06-26T02:11:03;6.72;;;5.53;;
22644;SDS011;11489;50.834;6.752;2023-06-26T02:13:29;6.63;;;5.50;;
22644;SDS011;11489;50.834;6.752;2023-06-26T02:15:55;6.78;;;5.50;;
22644;SDS011;11489;50.834;6.752;2023-06-26T02:18:20;5.95;;;5.35;;
22644;SDS011;11489;50.834;6.752;2023-06-26T02:20:47;6.88;;;5.70;;
22644;SDS011;11489;50.834;6.752;2023-06-26T02:23:13;7.10;;;6.00;;
22644;SDS011;11489;50.834;6.752;2023-06-26T02:25:39;6.63;;;5.80;;
22644;SDS011;11489;50.834;6.752;2023-06-26T02:28:05;14.95;;;6.00;;
22644;SDS011;11489;50.834;6.752;2023-06-26T02:30:30;6.22;;;5.43;;
22644;SDS011;11489;50.834;6.752;2023-06-26T02:32:56;6.45;;;5.43;;
22644;SDS011;11489;50.834;6.752;2023-06-26T02:35:22;6.65;;;5.43;;
22644;SDS011;11489;50.834;6.752;2023-06-26T02:37:47;7.28;;;5.55;;
22644;SDS011;11489;50.834;6.752;2023-06-26T02:40:13;6.82;;;5.85;;
22644;SDS011;11489;50.834;6.752;2023-06-26T02:42:39;8.18;;;5.82;;
22644;SDS011;11489;50.834;6.752;2023-06-26T02:45:05;6.15;;;5.10;;
22644;SDS011;11489;50.834;6.752;2023-06-26T02:47:31;5.82;;;5.13;;
22644;SDS011;11489;50.834;6.752;2023-06-26T02:49:56;7.97;;;5.25;;
22644;SDS011;11489;50.834;6.752;2023-06-26T02:52:22;8.45;;;5.72;;
22644;SDS011;11489;50.834;6.752;2023-06-26T02:54:48;6.97;;;5.78;;
22644;SDS011;11489;50.834;6.752;2023-06-26T02:57:13;7.75;;;5.75;;
22644;SDS011;11489;50.834;6.752;2023-06-26T02:59:39;5.70;;;4.90;;
22644;SDS011;11489;50.834;6.752;2023-06-26T03:02:05;6.28;;;5.43;;
22644;SDS011;11489;50.834;6.752;2023-06-26T03:04:31;6.78;;;5.13;;
22644;SDS011;11489;50.834;6.752;2023-06-26T03:06:56;7.05;;;5.60;;
22644;SDS011;11489;50.834;6.752;2023-06-26T03:09:22;6.55;;;5.30;;
22644;SDS011;11489;50.834;6.752;2023-06-26T03:11:48;6.13;;;5.53;;
22644;SDS011;11489;50.834;6.752;2023-06-26T03:14:13;9.50;;;5.55;;
22644;SDS011;11489;50.834;6.752;2023-06-26T03:16:39;8.23;;;5.78;;
22644;SDS011;11489;50.834;6.752;2023-06-26T03:19:05;7.90;;;5.68;;
22644;SDS011;11489;50.834;6.752;2023-06-26T03:21:32;6.25;;;5.60;;
22644;SDS011;11489;50.834;6.752;2023-06-26T03:23:57;8.15;;;5.85;;
22644;SDS011;11489;50.834;6.752;2023-06-26T03:26:23;6.65;;;5.80;;
22644;SDS011;11489;50.834;6.752;2023-06-26T03:28:52;8.05;;;5.53;;
22644;SDS011;11489;50.834;6.752;2023-06-26T03:31:19;7.63;;;5.75;;
22644;SDS011;11489;50.834;6.752;2023-06-26T03:33:44;10.98;;;5.90;;
22644;SDS011;11489;50.834;6.752;2023-06-26T03:36:10;5.82;;;5.07;;
22644;SDS011;11489;50.834;6.752;2023-06-26T03:38:36;6.38;;;5.20;;
22644;SDS011;11489;50.834;6.752;2023-06-26T03:41:02;6.38;;;5.22;;
22644;SDS011;11489;50.834;6.752;2023-06-26T03:43:28;6.68;;;5.72;;
22644;SDS011;11489;50.834;6.752;2023-06-26T03:45:53;8.45;;;5.85;;
22644;SDS011;11489;50.834;6.752;2023-06-26T03:48:20;9.45;;;6.18;;
22644;SDS011;11489;50.834;6.752;2023-06-26T03:50:45;7.75;;;6.15;;
22644;SDS011;11489;50.834;6.752;2023-06-26T03:53:11;7.93;;;5.88;;
22644;SDS011;11489;50.834;6.752;2023-06-26T03:55:37;8.55;;;5.70;;
22644;SDS011;11489;50.834;6.752;2023-06-26T03:58:03;7.15;;;5.70;;
22644;SDS011;11489;50.834;6.752;2023-06-26T04:00:30;10.88;;;5.45;;
22644;SDS011;11489;50.834;6.752;2023-06-26T04:02:55;11.82;;;5.80;;
22644;SDS011;11489;50.834;6.752;2023-06-26T04:05:22;7.43;;;5.45;;
22644;SDS011;11489;50.834;6.752;2023-06-26T04:07:52;6.72;;;5.63;;
22644;SDS011;11489;50.834;6.752;2023-06-26T04:10:18;7.32;;;5.22;;
22644;SDS011;11489;50.834;6.752;2023-06-26T04:12:44;7.65;;;5.00;;
22644;SDS011;11489;50.834;6.752;2023-06-26T04:15:10;9.43;;;5.40;;
22644;SDS011;11489;50.834;6.752;2023-06-26T04:17:36;8.23;;;4.80;;
22644;SDS011;11489;50.834;6.752;2023-06-26T04:20:01;7.78;;;5.28;;
22644;SDS011;11489;50.834;6.752;2023-06-26T04:22:31;9.10;;;5.13;;
22644;SDS011;11489;50.834;6.752;2023-06-26T04:24:57;8.73;;;4.75;;
22644;SDS011;11489;50.834;6.752;2023-06-26T04:27:23;8.20;;;5.10;;
22644;SDS011;11489;50.834;6.752;2023-06-26T04:29:49;6.25;;;5.28;;
22644;SDS011;11489;50.834;6.752;2023-06-26T04:32:14;8.25;;;4.93;;
22644;SDS011;11489;50.834;6.752;2023-06-26T04:34:40;10.68;;;5.40;;
22644;SDS011;11489;50.834;6.752;2023-06-26T04:37:08;6.65;;;4.78;;
22644;SDS011;11489;50.834;6.752;2023-06-26T04:39:35;7.15;;;4.85;;
22644;SDS011;11489;50.834;6.752;2023-06-26T04:42:02;7.25;;;4.93;;
22644;SDS011;11489;50.834;6.752;2023-06-26T04:44:29;6.78;;;4.80;;
22644;SDS011;11489;50.834;6.752;2023-06-26T04:46:54;6.47;;;4.63;;
22644;SDS011;11489;50.834;6.752;2023-06-26T04:49:20;5.60;;;4.20;;
22644;SDS011;11489;50.834;6.752;2023-06-26T04:51:46;10.30;;;4.65;;
22644;SDS011;11489;50.834;6.752;2023-06-26T04:54:11;6.18;;;4.68;;
22644;SDS011;11489;50.834;6.752;2023-06-26T04:56:37;5.28;;;4.47;;
22644;SDS011;11489;50.834;6.752;2023-06-26T04:59:05;7.55;;;4.32;;
22644;SDS011;11489;50.834;6.752;2023-06-26T05:01:30;8.10;;;4.10;;
22644;SDS011;11489;50.834;6.752;2023-06-26T05:03:57;5.10;;;4.60;;
22644;SDS011;11489;50.834;6.752;2023-06-26T05:06:27;4.30;;;3.90;;
22644;SDS011;11489;50.834;6.752;2023-06-26T05:08:53;7.00;;;4.22;;
22644;SDS011;11489;50.834;6.752;2023-06-26T05:11:18;6.57;;;4.53;;
22644;SDS011;11489;50.834;6.752;2023-06-26T05:13:44;5.75;;;4.55;;
22644;SDS011;11489;50.834;6.752;2023-06-26T05:16:10;7.38;;;4.55;;
22644;SDS011;11489;50.834;6.752;2023-06-26T05:18:35;6.18;;;4.07;;
22644;SDS011;11489;50.834;6.752;2023-06-26T05:21:01;7.07;;;4.40;;
22644;SDS011;11489;50.834;6.752;2023-06-26T05:23:28;5.50;;;4.50;;
22644;SDS011;11489;50.834;6.752;2023-06-26T05:25:56;5.70;;;4.03;;
22644;SDS011;11489;50.834;6.752;2023-06-26T05:28:23;10.88;;;3.88;;
22644;SDS011;11489;50.834;6.752;2023-06-26T05:30:50;4.97;;;3.95;;
22644;SDS011;11489;50.834;6.752;2023-06-26T05:33:17;4.53;;;3.70;;
22644;SDS011;11489;50.834;6.752;2023-06-26T05:35:44;5.75;;;4.05;;
22644;SDS011;11489;50.834;6.752;2023-06-26T05:38:10;7.28;;;3.88;;
22644;SDS011;11489;50.834;6.752;2023-06-26T05:40:38;6.55;;;3.78;;
22644;SDS011;11489;50.834;6.752;2023-06-26T05:43:05;5.00;;;4.00;;
22644;SDS011;11489;50.834;6.752;2023-06-26T05:45:32;6.72;;;3.97;;
22644;SDS011;11489;50.834;6.752;2023-06-26T05:47:58;4.90;;;3.90;;
22644;SDS011;11489;50.834;6.752;2023-06-26T05:50:24;5.53;;;3.75;;
22644;SDS011;11489;50.834;6.752;2023-06-26T05:52:50;7.72;;;3.80;;
22644;SDS011;11489;50.834;6.752;2023-06-26T05:55:16;4.40;;;3.63;;
22644;SDS011;11489;50.834;6.752;2023-06-26T05:57:42;5.57;;;3.88;;
22644;SDS011;11489;50.834;6.752;2023-06-26T06:00:09;6.38;;;3.83;;
22644;SDS011;11489;50.834;6.752;2023-06-26T06:02:36;5.38;;;3.80;;
22644;SDS011;11489;50.834;6.752;2023-06-26T06:05:02;8.00;;;3.88;;
22644;SDS011;11489;50.834;6.752;2023-06-26T06:07:28;9.63;;;3.58;;
22644;SDS011;11489;50.834;6.752;2023-06-26T06:09:54;6.65;;;3.45;;
22644;SDS011;11489;50.834;6.752;2023-06-26T06:12:19;4.57;;;3.28;;
22644;SDS011;11489;50.834;6.752;2023-06-26T06:14:45;6.25;;;3.53;;
22644;SDS011;11489;50.834;6.752;2023-06-26T06:17:11;6.07;;;3.15;;
22644;SDS011;11489;50.834;6.752;2023-06-26T06:19:36;4.15;;;3.35;;
22644;SDS011;11489;50.834;6.752;2023-06-26T06:22:02;4.25;;;3.00;;
22644;SDS011;11489;50.834;6.752;2023-06-26T06:24:28;7.38;;;3.10;;
22644;SDS011;11489;50.834;6.752;2023-06-26T06:26:54;7.97;;;3.10;;
22644;SDS011;11489;50.834;6.752;2023-06-26T06:29:19;6.45;;;3.10;;
22644;SDS011;11489;50.834;6.752;2023-06-26T06:31:45;6.32;;;3.20;;
22644;SDS011;11489;50.834;6.752;2023-06-26T06:34:11;10.93;;;3.38;;
22644;SDS011;11489;50.834;6.752;2023-06-26T06:36:37;6.80;;;2.88;;
22644;SDS011;11489;50.834;6.752;2023-06-26T06:39:03;6.25;;;3.72;;
22644;SDS011;11489;50.834;6.752;2023-06-26T06:41:29;5.82;;;3.20;;
22644;SDS011;11489;50.834;6.752;2023-06-26T06:43:55;6.68;;;3.35;;
22644;SDS011;11489;50.834;6.752;2023-06-26T06:46:20;6.55;;;3.10;;
22644;SDS011;11489;50.834;6.752;2023-06-26T06:48:46;7.63;;;3.53;;
22644;SDS011;11489;50.834;6.752;2023-06-26T06:51:12;7.47;;;3.40;;
22644;SDS011;11489;50.834;6.752;2023-06-26T06:53:38;5.53;;;3.75;;
22644;SDS011;11489;50.834;6.752;2023-06-26T06:56:03;9.68;;;3.67;;
22644;SDS011;11489;50.834;6.752;2023-06-26T06:58:29;9.60;;;3.38;;
22644;SDS011;11489;50.834;6.752;2023-06-26T07:00:59;10.88;;;3.50;;
22644;SDS011;11489;50.834;6.752;2023-06-26T07:03:24;6.40;;;3.72;;
22644;SDS011;11489;50.834;6.752;2023-06-26T07:05:50;9.55;;;3.92;;
22644;SDS011;11489;50.834;6.752;2023-06-26T07:08:16;9.40;;;3.80;;
22644;SDS011;11489;50.834;6.752;2023-06-26T07:10:41;7.53;;;4.20;;
22644;SDS011;11489;50.834;6.752;2023-06-26T07:13:07;6.10;;;3.63;;
22644;SDS011;11489;50.834;6.752;2023-06-26T07:15:33;7.63;;;3.95;;
22644;SDS011;11489;50.834;6.752;2023-06-26T07:17:58;7.63;;;3.80;;
22644;SDS011;11489;50.834;6.752;2023-06-26T07:20:24;15.48;;;4.15;;
22644;SDS011;11489;50.834;6.752;2023-06-26T07:22:50;9.07;;;4.30;;
22644;SDS011;11489;50.834;6.752;2023-06-26T07:25:15;7.80;;;4.45;;
22644;SDS011;11489;50.834;6.752;2023-06-26T07:27:41;10.77;;;4.53;;
22644;SDS011;11489;50.834;6.752;2023-06-26T07:30:07;7.32;;;4.25;;
22644;SDS011;11489;50.834;6.752;2023-06-26T07:32:34;8.30;;;4.13;;
22644;SDS011;11489;50.834;6.752;2023-06-26T07:35:00;12.57;;;4.75;;
22644;SDS011;11489;50.834;6.752;2023-06-26T07:37:26;9.63;;;4.50;;
22644;SDS011;11489;50.834;6.752;2023-06-26T07:39:51;9.15;;;4.35;;
22644;SDS011;11489;50.834;6.752;2023-06-26T07:42:17;13.60;;;4.85;;
22644;SDS011;11489;50.834;6.752;2023-06-26T07:44:43;11.50;;;4.20;;
22644;SDS011;11489;50.834;6.752;2023-06-26T07:47:09;7.45;;;3.97;;
22644;SDS011;11489;50.834;6.752;2023-06-26T07:49:35;6.07;;;3.80;;
22644;SDS011;11489;50.834;6.752;2023-06-26T07:52:01;6.15;;;3.55;;
22644;SDS011;11489;50.834;6.752;2023-06-26T07:54:27;7.25;;;3.90;;
22644;SDS011;11489;50.834;6.752;2023-06-26T07:56:56;7.53;;;3.30;;
22644;SDS011;11489;50.834;6.752;2023-06-26T07:59:26;5.72;;;3.30;;
22644;SDS011;11489;50.834;6.752;2023-06-26T08:01:54;9.90;;;3.30;;
22644;SDS011;11489;50.834;6.752;2023-06-26T08:04:21;5.53;;;3.33;;
22644;SDS011;11489;50.834;6.752;2023-06-26T08:06:49;9.50;;;3.70;;
22644;SDS011;11489;50.834;6.752;2023-06-26T08:09:15;6.88;;;3.20;;
22644;SDS011;11489;50.834;6.752;2023-06-26T08:11:42;8.10;;;3.00;;
22644;SDS011;11489;50.834;6.752;2023-06-26T08:14:08;5.18;;;2.90;;
22644;SDS011;11489;50.834;6.752;2023-06-26T08:16:33;5.13;;;3.38;;
22644;SDS011;11489;50.834;6.752;2023-06-26T08:18:59;6.15;;;2.92;;
22644;SDS011;11489;50.834;6.752;2023-06-26T08:21:26;8.15;;;3.25;;
22644;SDS011;11489;50.834;6.752;2023-06-26T08:23:51;6.63;;;3.22;;
22644;SDS011;11489;50.834;6.752;2023-06-26T08:26:17;5.97;;;2.83;;
22644;SDS011;11489;50.834;6.752;2023-06-26T08:28:43;6.93;;;3.10;;
22644;SDS011;11489;50.834;6.752;2023-06-26T08:31:09;7.40;;;3.33;;
22644;SDS011;11489;50.834;6.752;2023-06-26T08:33:35;15.32;;;3.30;;
22644;SDS011;11489;50.834;6.752;2023-06-26T08:36:01;6.50;;;2.92;;
22644;SDS011;11489;50.834;6.752;2023-06-26T08:38:27;6.07;;;2.72;;
22644;SDS011;11489;50.834;6.752;2023-06-26T08:40:52;8.48;;;2.92;;
22644;SDS011;11489;50.834;6.752;2023-06-26T08:43:18;10.63;;;2.90;;
22644;SDS011;11489;50.834;6.752;2023-06-26T08:45:44;6.55;;;3.00;;
22644;SDS011;11489;50.834;6.752;2023-06-26T08:48:11;6.57;;;3.35;;
22644;SDS011;11489;50.834;6.752;2023-06-26T08:50:38;8.20;;;3.15;;
22644;SDS011;11489;50.834;6.752;2023-06-26T08:53:16;15.77;;;3.38;;
22644;SDS011;11489;50.834;6.752;2023-06-26T08:55:48;6.60;;;3.30;;
22644;SDS011;11489;50.834;6.752;2023-06-26T08:58:17;8.40;;;3.70;;
22644;SDS011;11489;50.834;6.752;2023-06-26T09:00:43;5.75;;;3.22;;
22644;SDS011;11489;50.834;6.752;2023-06-26T09:03:08;7.25;;;2.80;;
22644;SDS011;11489;50.834;6.752;2023-06-26T09:05:35;7.95;;;2.90;;
22644;SDS011;11489;50.834;6.752;2023-06-26T09:08:01;5.60;;;2.85;;
22644;SDS011;11489;50.834;6.752;2023-06-26T09:10:27;5.95;;;2.90;;
22644;SDS011;11489;50.834;6.752;2023-06-26T09:12:56;5.65;;;2.47;;
22644;SDS011;11489;50.834;6.752;2023-06-26T09:15:26;3.70;;;2.30;;
22644;SDS011;11489;50.834;6.752;2023-06-26T09:17:57;4.60;;;2.88;;
22644;SDS011;11489;50.834;6.752;2023-06-26T09:20:24;5.32;;;2.35;;
22644;SDS011;11489;50.834;6.752;2023-06-26T09:22:53;8.65;;;2.50;;
22644;SDS011;11489;50.834;6.752;2023-06-26T09:25:19;6.10;;;2.25;;
22644;SDS011;11489;50.834;6.752;2023-06-26T09:27:47;4.40;;;2.83;;
22644;SDS011;11489;50.834;6.752;2023-06-26T09:30:16;5.35;;;2.55;;
22644;SDS011;11489;50.834;6.752;2023-06-26T09:32:42;5.85;;;2.65;;
22644;SDS011;11489;50.834;6.752;2023-06-26T09:35:08;6.35;;;2.47;;
22644;SDS011;11489;50.834;6.752;2023-06-26T09:37:34;7.78;;;2.35;;
22644;SDS011;11489;50.834;6.752;2023-06-26T09:39:59;6.28;;;3.13;;
22644;SDS011;11489;50.834;6.752;2023-06-26T09:42:25;6.53;;;2.70;;
22644;SDS011;11489;50.834;6.752;2023-06-26T09:44:51;5.65;;;2.58;;
22644;SDS011;11489;50.834;6.752;2023-06-26T09:47:18;11.75;;;2.35;;
22644;SDS011;11489;50.834;6.752;2023-06-26T09:49:44;5.57;;;2.30;;
22644;SDS011;11489;50.834;6.752;2023-06-26T09:52:19;4.85;;;2.28;;
22644;SDS011;11489;50.834;6.752;2023-06-26T09:54:45;6.97;;;2.13;;
22644;SDS011;11489;50.834;6.752;2023-06-26T09:57:12;5.00;;;2.25;;
22644;SDS011;11489;50.834;6.752;2023-06-26T09:59:42;4.00;;;1.90;;
22644;SDS011;11489;50.834;6.752;2023-06-26T10:02:11;3.67;;;1.85;;
22644;SDS011;11489;50.834;6.752;2023-06-26T10:04:37;5.05;;;2.45;;
22644;SDS011;11489;50.834;6.752;2023-06-26T10:07:04;6.40;;;2.25;;
22644;SDS011;11489;50.834;6.752;2023-06-26T10:09:31;5.55;;;2.03;;
22644;SDS011;11489;50.834;6.752;2023-06-26T10:12:06;5.80;;;1.90;;
22644;SDS011;11489;50.834;6.752;2023-06-26T10:14:38;4.15;;;2.10;;
22644;SDS011;11489;50.834;6.752;2023-06-26T10:17:08;4.30;;;1.77;;
22644;SDS011;11489;50.834;6.752;2023-06-26T10:19:35;4.72;;;2.22;;
22644;SDS011;11489;50.834;6.752;2023-06-26T10:22:03;4.20;;;1.88;;
22644;SDS011;11489;50.834;6.752;2023-06-26T10:24:31;3.20;;;1.70;;
22644;SDS011;11489;50.834;6.752;2023-06-26T10:27:02;2.97;;;1.80;;
22644;SDS011;11489;50.834;6.752;2023-06-26T10:29:32;9.60;;;1.58;;
22644;SDS011;11489;50.834;6.752;2023-06-26T10:32:00;5.30;;;1.80;;
22644;SDS011;11489;50.834;6.752;2023-06-26T10:34:29;6.53;;;1.90;;
22644;SDS011;11489;50.834;6.752;2023-06-26T10:36:59;4.30;;;1.60;;
22644;SDS011;11489;50.834;6.752;2023-06-26T10:39:26;3.60;;;1.70;;
22644;SDS011;11489;50.834;6.752;2023-06-26T10:41:54;3.42;;;1.80;;
22644;SDS011;11489;50.834;6.752;2023-06-26T10:44:20;4.40;;;1.80;;
22644;SDS011;11489;50.834;6.752;2023-06-26T10:46:53;5.13;;;1.80;;
22644;SDS011;11489;50.834;6.752;2023-06-26T10:49:20;4.00;;;1.73;;
22644;SDS011;11489;50.834;6.752;2023-06-26T10:51:50;2.97;;;1.50;;
22644;SDS011;11489;50.834;6.752;2023-06-26T10:54:17;6.38;;;1.70;;
22644;SDS011;11489;50.834;6.752;2023-06-26T10:56:44;5.47;;;1.50;;
22644;SDS011;11489;50.834;6.752;2023-06-26T10:59:14;4.55;;;1.60;;
22644;SDS011;11489;50.834;6.752;2023-06-26T11:01:42;2.95;;;1.60;;
22644;SDS011;11489;50.834;6.752;2023-06-26T11:04:12;5.10;;;1.80;;
22644;SDS011;11489;50.834;6.752;2023-06-26T11:06:45;5.05;;;1.60;;
22644;SDS011;11489;50.834;6.752;2023-06-26T11:09:14;4.95;;;1.50;;
22644;SDS011;11489;50.834;6.752;2023-06-26T11:14:21;3.70;;;1.60;;
22644;SDS011;11489;50.834;6.752;2023-06-26T11:16:48;3.58;;;1.67;;
22644;SDS011;11489;50.834;6.752;2023-06-26T11:19:16;3.50;;;1.58;;
22644;SDS011;11489;50.834;6.752;2023-06-26T11:21:43;3.92;;;1.75;;
22644;SDS011;11489;50.834;6.752;2023-06-26T11:24:09;4.15;;;1.70;;
22644;SDS011;11489;50.834;6.752;2023-06-26T11:26:43;2.70;;;1.42;;
22644;SDS011;11489;50.834;6.752;2023-06-26T11:29:17;5.63;;;1.40;;
22644;SDS011;11489;50.834;6.752;2023-06-26T11:31:43;6.68;;;1.83;;
22644;SDS011;11489;50.834;6.752;2023-06-26T11:34:09;2.47;;;1.27;;
22644;SDS011;11489;50.834;6.752;2023-06-26T11:36:41;3.10;;;1.40;;
22644;SDS011;11489;50.834;6.752;2023-06-26T11:39:09;2.97;;;1.50;;
22644;SDS011;11489;50.834;6.752;2023-06-26T11:41:36;4.63;;;1.55;;
22644;SDS011;11489;50.834;6.752;2023-06-26T11:44:06;4.07;;;1.40;;
22644;SDS011;11489;50.834;6.752;2023-06-26T11:46:36;3.00;;;1.73;;
22644;SDS011;11489;50.834;6.752;2023-06-26T11:49:06;3.65;;;1.70;;
22644;SDS011;11489;50.834;6.752;2023-06-26T11:51:33;3.97;;;1.90;;
22644;SDS011;11489;50.834;6.752;2023-06-26T11:54:01;4.63;;;1.73;;
22644;SDS011;11489;50.834;6.752;2023-06-26T11:56:30;2.13;;;1.33;;
22644;SDS011;11489;50.834;6.752;2023-06-26T12:01:38;6.95;;;1.73;;
22644;SDS011;11489;50.834;6.752;2023-06-26T12:04:06;4.05;;;1.50;;
22644;SDS011;11489;50.834;6.752;2023-06-26T12:06:33;5.22;;;1.55;;
22644;SDS011;11489;50.834;6.752;2023-06-26T12:09:01;5.70;;;1.85;;
22644;SDS011;11489;50.834;6.752;2023-06-26T12:11:30;1.92;;;1.40;;
22644;SDS011;11489;50.834;6.752;2023-06-26T12:13:56;2.50;;;1.50;;
22644;SDS011;11489;50.834;6.752;2023-06-26T12:16:23;2.10;;;1.52;;
22644;SDS011;11489;50.834;6.752;2023-06-26T12:18:48;2.63;;;1.50;;
22644;SDS011;11489;50.834;6.752;2023-06-26T12:24:12;3.47;;;1.52;;
22644;SDS011;11489;50.834;6.752;2023-06-26T12:26:41;3.55;;;1.60;;
22644;SDS011;11489;50.834;6.752;2023-06-26T12:29:11;2.47;;;1.48;;
22644;SDS011;11489;50.834;6.752;2023-06-26T12:31:42;4.70;;;1.52;;
22644;SDS011;11489;50.834;6.752;2023-06-26T12:34:09;6.25;;;1.88;;
22644;SDS011;11489;50.834;6.752;2023-06-26T12:36:47;4.55;;;1.70;;
22644;SDS011;11489;50.834;6.752;2023-06-26T12:39:15;3.13;;;1.58;;
22644;SDS011;11489;50.834;6.752;2023-06-26T12:41:49;3.63;;;1.70;;
22644;SDS011;11489;50.834;6.752;2023-06-26T12:44:19;2.08;;;1.30;;
22644;SDS011;11489;50.834;6.752;2023-06-26T12:46:49;2.47;;;1.40;;
22644;SDS011;11489;50.834;6.752;2023-06-26T12:49:19;4.90;;;1.63;;
22644;SDS011;11489;50.834;6.752;2023-06-26T12:51:46;4.80;;;1.60;;
22644;SDS011;11489;50.834;6.752;2023-06-26T12:54:12;4.22;;;1.27;;
22644;SDS011;11489;50.834;6.752;2023-06-26T12:56:37;5.43;;;1.63;;
22644;SDS011;11489;50.834;6.752;2023-06-26T12:59:03;3.40;;;1.48;;
22644;SDS011;11489;50.834;6.752;2023-06-26T13:01:29;3.20;;;1.20;;
22644;SDS011;11489;50.834;6.752;2023-06-26T13:03:54;1.88;;;1.23;;
22644;SDS011;11489;50.834;6.752;2023-06-26T13:06:20;3.38;;;1.45;;
22644;SDS011;11489;50.834;6.752;2023-06-26T13:08:46;4.05;;;1.50;;
22644;SDS011;11489;50.834;6.752;2023-06-26T13:11:11;4.47;;;1.13;;
22644;SDS011;11489;50.834;6.752;2023-06-26T13:13:37;3.58;;;1.20;;
22644;SDS011;11489;50.834;6.752;2023-06-26T13:16:03;5.35;;;1.17;;
22644;SDS011;11489;50.834;6.752;2023-06-26T13:18:28;4.78;;;1.33;;
22644;SDS011;11489;50.834;6.752;2023-06-26T13:20:54;2.15;;;1.20;;
22644;SDS011;11489;50.834;6.752;2023-06-26T13:23:20;4.97;;;1.10;;
22644;SDS011;11489;50.834;6.752;2023-06-26T13:25:45;8.13;;;1.08;;
22644;SDS011;11489;50.834;6.752;2023-06-26T13:28:11;4.88;;;1.25;;
22644;SDS011;11489;50.834;6.752;2023-06-26T13:30:37;3.47;;;1.20;;
22644;SDS011;11489;50.834;6.752;2023-06-26T13:33:02;2.35;;;1.30;;
22644;SDS011;11489;50.834;6.752;2023-06-26T13:35:29;2.83;;;1.38;;
22644;SDS011;11489;50.834;6.752;2023-06-26T13:37:54;1.88;;;1.10;;
22644;SDS011;11489;50.834;6.752;2023-06-26T13:40:20;6.65;;;1.15;;
22644;SDS011;11489;50.834;6.752;2023-06-26T13:42:46;2.38;;;1.20;;
22644;SDS011;11489;50.834;6.752;2023-06-26T13:45:11;2.13;;;1.13;;
22644;SDS011;11489;50.834;6.752;2023-06-26T13:47:37;5.07;;;1.10;;
22644;SDS011;11489;50.834;6.752;2023-06-26T13:50:06;5.35;;;1.27;;
22644;SDS011;11489;50.834;6.752;2023-06-26T13:52:33;6.82;;;1.50;;
22644;SDS011;11489;50.834;6.752;2023-06-26T13:54:59;6.53;;;1.20;;
22644;SDS011;11489;50.834;6.752;2023-06-26T13:57:24;5.00;;;1.20;;
22644;SDS011;11489;50.834;6.752;2023-06-26T13:59:52;4.80;;;1.40;;
22644;SDS011;11489;50.834;6.752;2023-06-26T14:02:18;3.53;;;1.20;;
22644;SDS011;11489;50.834;6.752;2023-06-26T14:04:44;3.28;;;1.25;;
22644;SDS011;11489;50.834;6.752;2023-06-26T14:07:09;4.30;;;1.48;;
22644;SDS011;11489;50.834;6.752;2023-06-26T14:09:35;2.40;;;1.30;;
22644;SDS011;11489;50.834;6.752;2023-06-26T14:12:01;1.77;;;1.10;;
22644;SDS011;11489;50.834;6.752;2023-06-26T14:14:26;4.53;;;1.20;;
22644;SDS011;11489;50.834;6.752;2023-06-26T14:16:53;3.08;;;0.90;;
22644;SDS011;11489;50.834;6.752;2023-06-26T14:19:18;5.15;;;1.15;;
22644;SDS011;11489;50.834;6.752;2023-06-26T14:21:44;3.55;;;1.23;;
22644;SDS011;11489;50.834;6.752;2023-06-26T14:24:10;2.53;;;1.20;;
22644;SDS011;11489;50.834;6.752;2023-06-26T14:26:36;1.60;;;1.08;;
22644;SDS011;11489;50.834;6.752;2023-06-26T14:29:02;3.30;;;1.13;;
22644;SDS011;11489;50.834;6.752;2023-06-26T14:31:27;9.25;;;1.63;;
22644;SDS011;11489;50.834;6.752;2023-06-26T14:33:53;3.40;;;1.45;;
22644;SDS011;11489;50.834;6.752;2023-06-26T14:36:19;2.00;;;1.20;;
22644;SDS011;11489;50.834;6.752;2023-06-26T14:38:45;10.85;;;1.70;;
22644;SDS011;11489;50.834;6.752;2023-06-26T14:41:11;9.38;;;1.33;;
22644;SDS011;11489;50.834;6.752;2023-06-26T14:43:38;3.55;;;1.77;;
22644;SDS011;11489;50.834;6.752;2023-06-26T14:46:03;4.78;;;1.83;;
22644;SDS011;11489;50.834;6.752;2023-06-26T14:48:29;4.53;;;1.20;;
22644;SDS011;11489;50.834;6.752;2023-06-26T14:50:55;3.92;;;1.60;;
22644;SDS011;11489;50.834;6.752;2023-06-26T14:53:20;1.88;;;1.10;;
22644;SDS011;11489;50.834;6.752;2023-06-26T14:55:46;2.60;;;1.50;;
22644;SDS011;11489;50.834;6.752;2023-06-26T14:58:11;3.28;;;2.00;;
22644;SDS011;11489;50.834;6.752;2023-06-26T15:00:37;2.95;;;1.20;;
22644;SDS011;11489;50.834;6.752;2023-06-26T15:03:03;5.97;;;1.30;;
22644;SDS011;11489;50.834;6.752;2023-06-26T15:05:28;3.75;;;1.27;;